Time;durP1;ratioP1;P1;durP2;ratioP2;P2;SDS_P1;SDS_P2;PMS_P1;PMS_P2;Temp;Humidity;BMP_temperature;BMP_pressure;BME280_temperature;BME280_humidity;BME280_pressure;Samples;Min_cycle;Max_cycle;Signal;HPM_P1;HPM_P2
2023/03/09 00:02:00;;;;;;;11.27;5.22;;;;;;;;;;5073812;28;20415;-78
2023/03/09 00:04:25;;;;;;;14.07;5.05;;;;;;;;;;5072774;28;20111;-77
2023/03/09 00:06:51;;;;;;;10.50;5.18;;;;;;;;;;5072878;28;20026;-78
2023/03/09 00:09:17;;;;;;;15.18;5.63;;;;;;;;;;5072720;28;20059;-78
2023/03/09 00:11:43;;;;;;;16.88;5.40;;;;;;;;;;5056039;28;20028;-77
2023/03/09 00:14:09;;;;;;;9.15;4.95;;;;;;;;;;5039360;28;20024;-77
2023/03/09 00:16:34;;;;;;;10.40;5.03;;;;;;;;;;5055966;28;20027;-78
2023/03/09 00:18:59;;;;;;;12.65;5.47;;;;;;;;;;5074056;28;20020;-77
2023/03/09 00:21:36;;;;;;;10.25;4.93;;;;;;;;;;5073195;28;20020;-77
2023/03/09 00:24:15;;;;;;;11.10;5.35;;;;;;;;;;5072813;28;20029;-78
2023/03/09 00:26:42;;;;;;;8.70;4.60;;;;;;;;;;5055980;28;20127;-77
2023/03/09 00:29:08;;;;;;;14.95;5.00;;;;;;;;;;5055915;28;20040;-77
2023/03/09 00:31:33;;;;;;;10.45;4.65;;;;;;;;;;5072084;28;20066;-77
2023/03/09 00:33:59;;;;;;;17.48;4.75;;;;;;;;;;5073720;28;20024;-78
2023/03/09 00:36:24;;;;;;;12.05;5.25;;;;;;;;;;5055756;28;20363;-77
2023/03/09 00:38:51;;;;;;;12.43;4.88;;;;;;;;;;5070884;28;20179;-77
2023/03/09 00:41:17;;;;;;;11.80;5.07;;;;;;;;;;5073537;28;20123;-77
2023/03/09 00:43:43;;;;;;;13.63;5.07;;;;;;;;;;5072184;28;20031;-78
2023/03/09 00:46:08;;;;;;;11.55;4.50;;;;;;;;;;5073414;28;20020;-78
2023/03/09 00:48:36;;;;;;;10.57;5.13;;;;;;;;;;5072091;28;20375;-78
2023/03/09 00:51:01;;;;;;;11.35;4.72;;;;;;;;;;5055567;28;20024;-79
2023/03/09 00:53:26;;;;;;;9.80;4.72;;;;;;;;;;5055402;28;20039;-78
2023/03/09 00:55:52;;;;;;;12.43;4.85;;;;;;;;;;5072170;28;20500;-77
2023/03/09 00:58:17;;;;;;;10.50;4.70;;;;;;;;;;5073040;28;20055;-78
2023/03/09 01:00:43;;;;;;;10.43;4.50;;;;;;;;;;5076368;28;20024;-78
2023/03/09 01:03:08;;;;;;;11.95;4.90;;;;;;;;;;5077272;28;20498;-78
2023/03/09 01:05:33;;;;;;;11.65;4.95;;;;;;;;;;5059378;28;20442;-78
2023/03/09 01:07:59;;;;;;;15.45;5.53;;;;;;;;;;5075950;28;20026;-77
2023/03/09 01:10:24;;;;;;;8.80;4.82;;;;;;;;;;5077707;28;20032;-78
2023/03/09 01:12:50;;;;;;;10.07;4.70;;;;;;;;;;5075691;28;20025;-77
2023/03/09 01:15:15;;;;;;;11.35;4.85;;;;;;;;;;5077168;28;20021;-78
2023/03/09 01:17:42;;;;;;;15.82;4.80;;;;;;;;;;5075885;28;20094;-80
2023/03/09 01:20:09;;;;;;;15.40;4.90;;;;;;;;;;5077085;28;20046;-78
2023/03/09 01:22:34;;;;;;;22.38;5.57;;;;;;;;;;5076909;28;20032;-78
2023/03/09 01:25:00;;;;;;;29.70;7.10;;;;;;;;;;5059551;28;20020;-78
2023/03/09 01:27:25;;;;;;;21.45;5.65;;;;;;;;;;5076691;28;20020;-78
2023/03/09 01:29:50;;;;;;;19.17;6.45;;;;;;;;;;5077254;28;20453;-78
2023/03/09 01:32:16;;;;;;;14.77;5.68;;;;;;;;;;5077210;28;20082;-78
2023/03/09 01:34:41;;;;;;;12.45;4.90;;;;;;;;;;5075714;28;20036;-79
2023/03/09 01:37:07;;;;;;;11.50;4.82;;;;;;;;;;5075493;28;20462;-78
2023/03/09 01:39:32;;;;;;;11.02;4.40;;;;;;;;;;5076725;28;20458;-78
2023/03/09 01:41:58;;;;;;;11.75;5.07;;;;;;;;;;5073326;28;20028;-78
2023/03/09 01:44:23;;;;;;;14.68;4.93;;;;;;;;;;5076198;28;20135;-78
2023/03/09 01:46:56;;;;;;;11.38;5.30;;;;;;;;;;5076208;28;20025;-78
2023/03/09 01:49:34;;;;;;;13.98;5.25;;;;;;;;;;5059107;28;20040;-78
2023/03/09 01:52:06;;;;;;;16.50;5.78;;;;;;;;;;5059200;28;20028;-78
2023/03/09 01:54:35;;;;;;;10.05;5.13;;;;;;;;;;5076626;28;20117;-79
2023/03/09 01:57:28;;;;;;;14.03;5.73;;;;;;;;;;5076008;28;20055;-79
2023/03/09 01:59:56;;;;;;;11.65;4.93;;;;;;;;;;5074979;28;20275;-78
2023/03/09 02:02:23;;;;;;;10.52;4.47;;;;;;;;;;5074981;28;20028;-79
2023/03/09 02:04:51;;;;;;;9.52;3.92;;;;;;;;;;5058607;28;20111;-78
2023/03/09 02:07:18;;;;;;;12.80;4.38;;;;;;;;;;5058760;28;20075;-78
2023/03/09 02:09:49;;;;;;;13.30;4.15;;;;;;;;;;5074770;28;20048;-78
2023/03/09 02:12:18;;;;;;;12.18;4.80;;;;;;;;;;5057134;28;20476;-78
2023/03/09 02:14:43;;;;;;;9.00;4.00;;;;;;;;;;5041794;28;20041;-78
2023/03/09 02:17:12;;;;;;;12.88;5.30;;;;;;;;;;5074832;28;20380;-78
2023/03/09 02:19:38;;;;;;;9.43;5.07;;;;;;;;;;5058102;28;20024;-76
2023/03/09 02:22:03;;;;;;;13.60;4.90;;;;;;;;;;5074944;28;20442;-76
2023/03/09 02:24:51;;;;;;;10.40;4.10;;;;;;;;;;5057740;28;20025;-78
2023/03/09 02:27:20;;;;;;;9.13;4.38;;;;;;;;;;5074871;28;20089;-76
2023/03/09 02:29:45;;;;;;;11.55;4.50;;;;;;;;;;5058261;28;20442;-76
2023/03/09 02:32:11;;;;;;;10.00;4.60;;;;;;;;;;5074522;28;20116;-77
2023/03/09 02:34:36;;;;;;;9.27;4.53;;;;;;;;;;5074629;28;20412;-76
2023/03/09 02:37:02;;;;;;;20.98;5.78;;;;;;;;;;5076081;28;20032;-76
2023/03/09 02:39:45;;;;;;;11.52;5.00;;;;;;;;;;5074134;28;20446;-76
2023/03/09 02:42:10;;;;;;;15.77;5.30;;;;;;;;;;5057714;28;20027;-76
2023/03/09 02:44:35;;;;;;;15.23;4.95;;;;;;;;;;5072626;28;20111;-76
2023/03/09 02:47:02;;;;;;;13.27;4.90;;;;;;;;;;5057197;28;20373;-76
2023/03/09 02:49:27;;;;;;;10.13;4.82;;;;;;;;;;5073887;28;20040;-75
2023/03/09 02:51:53;;;;;;;8.65;4.63;;;;;;;;;;5074087;28;20058;-76
2023/03/09 02:54:18;;;;;;;11.07;4.30;;;;;;;;;;5057146;28;20522;-76
2023/03/09 02:56:44;;;;;;;13.88;4.80;;;;;;;;;;5057310;28;20096;-76
2023/03/09 02:59:09;;;;;;;24.25;5.97;;;;;;;;;;5073853;28;20107;-79
2023/03/09 03:01:34;;;;;;;14.05;5.38;;;;;;;;;;5073855;28;20351;-77
2023/03/09 03:04:00;;;;;;;19.55;5.32;;;;;;;;;;5075072;28;20389;-76
2023/03/09 03:06:25;;;;;;;23.67;6.40;;;;;;;;;;5073659;28;20024;-76
2023/03/09 03:08:51;;;;;;;27.10;5.82;;;;;;;;;;5073538;28;20021;-77
2023/03/09 03:11:16;;;;;;;19.85;5.78;;;;;;;;;;5074930;28;20117;-77
2023/03/09 03:13:41;;;;;;;19.27;5.70;;;;;;;;;;5073818;28;20021;-76
2023/03/09 03:16:07;;;;;;;24.92;6.40;;;;;;;;;;5074375;28;20119;-76
2023/03/09 03:18:32;;;;;;;19.50;5.65;;;;;;;;;;5056920;28;20111;-76
2023/03/09 03:20:58;;;;;;;21.42;6.20;;;;;;;;;;5074743;28;20025;-76
2023/03/09 03:23:23;;;;;;;23.45;5.78;;;;;;;;;;5072974;28;20150;-77
2023/03/09 03:25:49;;;;;;;18.17;5.32;;;;;;;;;;5073491;28;20111;-76
2023/03/09 03:28:14;;;;;;;17.25;5.78;;;;;;;;;;5056769;28;20029;-76
2023/03/09 03:30:40;;;;;;;15.88;5.28;;;;;;;;;;5074478;28;20115;-76
2023/03/09 03:33:05;;;;;;;13.63;5.35;;;;;;;;;;5073214;28;20462;-76
2023/03/09 03:35:31;;;;;;;12.00;4.47;;;;;;;;;;5074437;28;20028;-76
2023/03/09 03:37:56;;;;;;;13.55;4.53;;;;;;;;;;5073108;28;20035;-76
2023/03/09 03:40:22;;;;;;;13.23;4.97;;;;;;;;;;5056813;28;20029;-76
2023/03/09 03:42:48;;;;;;;12.82;4.50;;;;;;;;;;5073228;28;20032;-76
2023/03/09 03:45:13;;;;;;;9.82;4.68;;;;;;;;;;5074291;28;20028;-75
2023/03/09 03:47:40;;;;;;;13.70;4.93;;;;;;;;;;5070070;28;20047;-75
2023/03/09 03:50:06;;;;;;;13.65;4.70;;;;;;;;;;5072814;28;20500;-76
2023/03/09 03:52:31;;;;;;;11.23;5.00;;;;;;;;;;5072561;28;20028;-77
2023/03/09 03:54:56;;;;;;;13.10;5.10;;;;;;;;;;5056052;28;20020;-76
2023/03/09 03:57:22;;;;;;;11.57;3.97;;;;;;;;;;5074172;28;20040;-76
2023/03/09 03:59:49;;;;;;;8.73;4.47;;;;;;;;;;5072728;28;20066;-76
2023/03/09 04:02:14;;;;;;;12.52;4.13;;;;;;;;;;5056170;28;20048;-76
2023/03/09 04:04:41;;;;;;;10.70;4.53;;;;;;;;;;5073346;28;20052;-77
2023/03/09 04:07:06;;;;;;;9.35;4.15;;;;;;;;;;5073566;28;20035;-77
2023/03/09 04:09:32;;;;;;;9.52;3.95;;;;;;;;;;5074033;28;20025;-75
2023/03/09 04:11:58;;;;;;;15.98;5.05;;;;;;;;;;5056066;28;20035;-76
2023/03/09 04:14:23;;;;;;;10.80;4.45;;;;;;;;;;5072622;28;20020;-76
2023/03/09 04:16:48;;;;;;;14.13;4.40;;;;;;;;;;5055871;28;20033;-76
2023/03/09 04:19:14;;;;;;;12.27;4.60;;;;;;;;;;5056037;28;20036;-78
2023/03/09 04:21:39;;;;;;;11.45;4.57;;;;;;;;;;5072524;28;20028;-78
2023/03/09 04:24:05;;;;;;;10.98;4.28;;;;;;;;;;5074068;28;20035;-78
2023/03/09 04:26:30;;;;;;;11.38;4.40;;;;;;;;;;5072887;28;20033;-77
2023/03/09 04:28:56;;;;;;;9.43;3.60;;;;;;;;;;5073581;28;20029;-80
2023/03/09 04:31:21;;;;;;;11.30;3.85;;;;;;;;;;5073722;28;20035;-80
2023/03/09 04:33:46;;;;;;;8.52;3.22;;;;;;;;;;5105771;28;20110;-79
2023/03/09 04:36:12;;;;;;;7.55;3.15;;;;;;;;;;5055277;28;20067;-78
2023/03/09 04:38:38;;;;;;;9.52;3.50;;;;;;;;;;5073703;28;20028;-78
2023/03/09 04:41:04;;;;;;;8.05;3.50;;;;;;;;;;5055633;28;20047;-75
2023/03/09 04:43:29;;;;;;;14.32;3.45;;;;;;;;;;5055562;28;20113;-78
2023/03/09 04:45:54;;;;;;;7.63;2.83;;;;;;;;;;5072308;28;20071;-77
2023/03/09 04:48:20;;;;;;;9.80;3.33;;;;;;;;;;5067907;28;20044;-77
2023/03/09 04:50:45;;;;;;;5.60;3.25;;;;;;;;;;5073027;28;20060;-77
2023/03/09 04:53:11;;;;;;;6.75;3.33;;;;;;;;;;5072150;28;20086;-77
2023/03/09 04:55:37;;;;;;;6.85;2.97;;;;;;;;;;5072294;28;20025;-76
2023/03/09 04:58:03;;;;;;;6.45;2.90;;;;;;;;;;5073327;28;20051;-77
2023/03/09 05:00:28;;;;;;;7.95;3.00;;;;;;;;;;5072540;28;20400;-77
2023/03/09 05:02:54;;;;;;;5.93;2.65;;;;;;;;;;5072018;28;20020;-77
2023/03/09 05:05:19;;;;;;;10.70;2.90;;;;;;;;;;5073019;28;20369;-76
2023/03/09 05:07:45;;;;;;;8.70;2.90;;;;;;;;;;5073078;28;20017;-77
2023/03/09 05:10:10;;;;;;;6.45;3.65;;;;;;;;;;5072382;28;20401;-77
2023/03/09 05:12:36;;;;;;;7.22;3.20;;;;;;;;;;5055406;28;20029;-78
2023/03/09 05:15:01;;;;;;;10.05;4.00;;;;;;;;;;5073172;28;20110;-76
2023/03/09 05:17:27;;;;;;;17.70;5.28;;;;;;;;;;5055674;28;20063;-76
2023/03/09 05:19:53;;;;;;;11.38;4.30;;;;;;;;;;5071178;28;20028;-76
2023/03/09 05:22:18;;;;;;;13.00;4.88;;;;;;;;;;5072118;28;20028;-77
2023/03/09 05:24:43;;;;;;;13.65;5.50;;;;;;;;;;5054956;28;20036;-76
2023/03/09 05:27:09;;;;;;;12.45;5.30;;;;;;;;;;5072423;28;20028;-76
2023/03/09 05:29:34;;;;;;;9.75;4.72;;;;;;;;;;5055162;28;20035;-76
2023/03/09 05:32:01;;;;;;;10.35;3.85;;;;;;;;;;5072054;28;20024;-81
2023/03/09 05:34:41;;;;;;;10.55;3.97;;;;;;;;;;5075636;28;20028;-81
2023/03/09 05:37:07;;;;;;;10.68;4.72;;;;;;;;;;5080100;28;20124;-80
2023/03/09 05:39:37;;;;;;;9.38;4.03;;;;;;;;;;5077682;28;20058;-81
2023/03/09 05:42:03;;;;;;;14.65;4.10;;;;;;;;;;5056861;28;20033;-80
2023/03/09 05:44:29;;;;;;;10.73;3.90;;;;;;;;;;5057619;28;20107;-81
2023/03/09 05:46:56;;;;;;;19.23;4.47;;;;;;;;;;5059010;28;20021;-81
2023/03/09 05:49:22;;;;;;;11.43;4.20;;;;;;;;;;5055076;28;20358;-81
2023/03/09 05:51:48;;;;;;;17.42;4.82;;;;;;;;;;5048783;28;20040;-80
2023/03/09 05:54:13;;;;;;;9.52;3.97;;;;;;;;;;5054167;28;20035;-82
2023/03/09 05:56:39;;;;;;;13.82;4.30;;;;;;;;;;5068089;28;20040;-81
2023/03/09 05:59:05;;;;;;;21.38;6.03;;;;;;;;;;5073357;28;20036;-81
2023/03/09 06:01:30;;;;;;;24.10;4.97;;;;;;;;;;5074165;28;20025;-79
2023/03/09 06:03:56;;;;;;;13.07;4.93;;;;;;;;;;5061741;28;20367;-79
2023/03/09 06:06:24;;;;;;;15.63;4.43;;;;;;;;;;5058089;28;20093;-79
2023/03/09 06:08:50;;;;;;;16.73;4.82;;;;;;;;;;5069899;28;20052;-81
2023/03/09 06:11:16;;;;;;;14.15;4.50;;;;;;;;;;5071646;28;20033;-80
2023/03/09 06:13:41;;;;;;;9.45;4.25;;;;;;;;;;5068547;28;20039;-80
2023/03/09 06:16:08;;;;;;;11.98;5.10;;;;;;;;;;5070592;28;20036;-78
2023/03/09 06:18:33;;;;;;;11.65;4.38;;;;;;;;;;5068497;28;20063;-79
2023/03/09 06:21:03;;;;;;;11.05;4.15;;;;;;;;;;5069167;28;20351;-77
2023/03/09 06:23:29;;;;;;;8.65;3.95;;;;;;;;;;5069288;28;20032;-81
2023/03/09 06:25:55;;;;;;;16.25;4.60;;;;;;;;;;5065706;28;20029;-79
2023/03/09 06:28:20;;;;;;;16.25;5.20;;;;;;;;;;5069370;28;20031;-80
2023/03/09 06:30:46;;;;;;;13.48;5.13;;;;;;;;;;5067196;28;20029;-79
2023/03/09 06:33:15;;;;;;;15.82;5.60;;;;;;;;;;5068390;28;20029;-80
2023/03/09 06:38:26;;;;;;;40.35;14.30;;;;;;;;;;5019423;23;20042;-79
2023/03/09 06:40:54;;;;;;;43.13;13.63;;;;;;;;;;5015177;28;20030;-76
2023/03/09 06:43:20;;;;;;;47.10;15.18;;;;;;;;;;5021355;28;20026;-79
2023/03/09 06:45:46;;;;;;;32.22;14.52;;;;;;;;;;4994581;28;20037;-79
2023/03/09 06:48:12;;;;;;;33.45;12.85;;;;;;;;;;4973948;28;20032;-80
2023/03/09 06:50:38;;;;;;;35.30;13.80;;;;;;;;;;4977582;28;20037;-82
2023/03/09 06:53:04;;;;;;;56.75;17.48;;;;;;;;;;5011690;28;20026;-79
2023/03/09 06:55:29;;;;;;;59.83;21.40;;;;;;;;;;4996730;28;20168;-80
2023/03/09 06:57:55;;;;;;;41.58;18.08;;;;;;;;;;4985338;28;20045;-78
2023/03/09 07:00:21;;;;;;;61.08;28.10;;;;;;;;;;4992495;28;20079;-80
2023/03/09 07:02:46;;;;;;;68.25;22.27;;;;;;;;;;4988649;28;20502;-76
2023/03/09 07:05:12;;;;;;;62.63;22.88;;;;;;;;;;4990464;28;20486;-78
2023/03/09 07:07:37;;;;;;;59.47;21.00;;;;;;;;;;4988418;28;20026;-78
2023/03/09 07:10:04;;;;;;;62.88;24.23;;;;;;;;;;4993207;28;20044;-78
2023/03/09 07:12:30;;;;;;;74.90;27.17;;;;;;;;;;5004869;28;20058;-79
2023/03/09 07:14:56;;;;;;;66.72;25.55;;;;;;;;;;4988162;28;20034;-78
2023/03/09 07:17:22;;;;;;;77.25;25.85;;;;;;;;;;5010822;28;20036;-79
2023/03/09 07:19:56;;;;;;;58.58;22.40;;;;;;;;;;5028369;28;20112;-78
2023/03/09 07:22:33;;;;;;;53.03;20.90;;;;;;;;;;4998118;28;20053;-77
2023/03/09 07:25:00;;;;;;;51.53;19.90;;;;;;;;;;4992663;28;20092;-77
2023/03/09 07:27:33;;;;;;;47.13;20.27;;;;;;;;;;4981334;28;20025;-77
2023/03/09 07:29:58;;;;;;;49.08;17.30;;;;;;;;;;5013751;28;20400;-78
2023/03/09 07:32:24;;;;;;;66.05;20.33;;;;;;;;;;5014821;28;20044;-79
2023/03/09 07:34:50;;;;;;;47.95;19.55;;;;;;;;;;5015697;28;20049;-78
2023/03/09 07:37:15;;;;;;;52.30;18.35;;;;;;;;;;5013435;28;20045;-78
2023/03/09 07:39:41;;;;;;;41.08;16.55;;;;;;;;;;5022056;28;20033;-78
2023/03/09 07:42:07;;;;;;;42.28;15.80;;;;;;;;;;5015528;28;20085;-80
2023/03/09 07:44:35;;;;;;;48.22;16.85;;;;;;;;;;5021437;28;20060;-81
2023/03/09 07:47:08;;;;;;;53.05;17.08;;;;;;;;;;5015063;28;20069;-77
2023/03/09 07:49:34;;;;;;;31.77;11.20;;;;;;;;;;5011589;28;20117;-78
2023/03/09 07:52:02;;;;;;;42.20;12.68;;;;;;;;;;4993069;28;20025;-77
2023/03/09 07:54:27;;;;;;;40.85;13.55;;;;;;;;;;5010978;28;20029;-76
2023/03/09 07:56:57;;;;;;;37.90;12.77;;;;;;;;;;5008140;28;20353;-76
2023/03/09 07:59:23;;;;;;;;;;;;;;;;;;5008324;28;20065;-77
2023/03/09 08:01:51;;;;;;;60.63;18.58;;;;;;;;;;4999792;28;19964;-79
2023/03/09 08:04:16;;;;;;;63.58;21.50;;;;;;;;;;4986255;28;20195;-78
2023/03/09 08:06:44;;;;;;;53.72;19.75;;;;;;;;;;5011358;28;20124;-77
2023/03/09 08:09:14;;;;;;;55.30;18.70;;;;;;;;;;5008530;28;20037;-78
2023/03/09 08:11:40;;;;;;;68.47;19.90;;;;;;;;;;5013674;28;20026;-76
2023/03/09 08:14:09;;;;;;;61.80;22.20;;;;;;;;;;5013529;28;20450;-77
2023/03/09 08:16:34;;;;;;;31.02;12.88;;;;;;;;;;4990727;28;20400;-79
2023/03/09 08:19:00;;;;;;;19.02;4.70;;;;;;;;;;5007198;28;20038;-77
2023/03/09 08:21:25;;;;;;;12.20;4.00;;;;;;;;;;5003408;28;20047;-75
2023/03/09 08:23:52;;;;;;;22.38;4.72;;;;;;;;;;5006613;28;20029;-78
2023/03/09 08:26:18;;;;;;;21.58;4.07;;;;;;;;;;4994284;28;20049;-76
2023/03/09 08:28:44;;;;;;;23.17;3.88;;;;;;;;;;4987600;28;20030;-77
2023/03/09 08:31:10;;;;;;;11.27;3.70;;;;;;;;;;4982092;28;20111;-78
2023/03/09 08:33:36;;;;;;;24.40;4.20;;;;;;;;;;4980527;28;20095;-79
2023/03/09 08:36:12;;;;;;;14.40;4.32;;;;;;;;;;4992456;28;20447;-78
2023/03/09 08:38:38;;;;;;;26.95;4.18;;;;;;;;;;4965992;28;20050;-77
2023/03/09 08:41:03;;;;;;;13.15;4.05;;;;;;;;;;4967233;28;20385;-77
2023/03/09 08:43:30;;;;;;;17.20;4.90;;;;;;;;;;4953106;29;20024;-77
2023/03/09 08:45:55;;;;;;;27.55;4.70;;;;;;;;;;4943802;29;20061;-80
2023/03/09 08:48:21;;;;;;;22.17;4.30;;;;;;;;;;4966697;28;20035;-79
2023/03/09 08:50:46;;;;;;;23.88;5.50;;;;;;;;;;4965022;28;20023;-80
2023/03/09 08:53:12;;;;;;;24.15;4.40;;;;;;;;;;4961063;28;20161;-80
2023/03/09 08:55:40;;;;;;;14.75;4.60;;;;;;;;;;4970181;28;20042;-80
2023/03/09 08:58:07;;;;;;;13.50;4.53;;;;;;;;;;4961463;28;20062;-84
2023/03/09 09:00:33;;;;;;;20.80;4.70;;;;;;;;;;4954356;28;20022;-80
2023/03/09 09:02:58;;;;;;;14.43;4.93;;;;;;;;;;4971910;28;20029;-79
2023/03/09 09:05:24;;;;;;;6.88;3.50;;;;;;;;;;4952704;28;20055;-79
2023/03/09 09:07:49;;;;;;;14.68;3.55;;;;;;;;;;4932987;29;20473;-79
2023/03/09 09:10:15;;;;;;;17.95;3.47;;;;;;;;;;4951734;29;20050;-79
2023/03/09 09:12:41;;;;;;;16.52;3.90;;;;;;;;;;4954041;28;20454;-81
2023/03/09 09:15:09;;;;;;;9.15;3.22;;;;;;;;;;4951934;28;20090;-78
2023/03/09 09:17:35;;;;;;;17.58;3.65;;;;;;;;;;4966223;28;20037;-79
2023/03/09 09:20:02;;;;;;;17.63;3.83;;;;;;;;;;4969942;28;20031;-81
2023/03/09 09:22:27;;;;;;;21.67;4.22;;;;;;;;;;4962224;28;20027;-80
2023/03/09 09:24:53;;;;;;;12.85;3.22;;;;;;;;;;4954687;28;20037;-76
2023/03/09 09:27:25;;;;;;;8.98;3.60;;;;;;;;;;4957746;29;20042;-79
2023/03/09 09:29:56;;;;;;;18.63;4.10;;;;;;;;;;4969876;28;20135;-78
2023/03/09 09:32:28;;;;;;;20.35;4.50;;;;;;;;;;4944141;29;20464;-80
2023/03/09 09:34:58;;;;;;;9.80;4.22;;;;;;;;;;4943121;29;20525;-78
2023/03/09 09:37:24;;;;;;;14.18;3.90;;;;;;;;;;4956293;28;20198;-82
2023/03/09 09:39:58;;;;;;;15.80;4.95;;;;;;;;;;4936223;29;20134;-80
2023/03/09 09:42:29;;;;;;;23.35;6.38;;;;;;;;;;4924122;29;20466;-80
2023/03/09 09:44:55;;;;;;;16.30;6.05;;;;;;;;;;4942376;29;20048;-81
2023/03/09 09:47:23;;;;;;;17.40;4.60;;;;;;;;;;4955886;29;20354;-80
2023/03/09 09:50:02;;;;;;;18.23;4.75;;;;;;;;;;4922783;29;20043;-80
2023/03/09 09:53:09;;;;;;;12.05;4.20;;;;;;;;;;4934558;29;20035;-80
2023/03/09 09:55:37;;;;;;;15.60;4.07;;;;;;;;;;4933309;28;20061;-79
2023/03/09 09:58:12;;;;;;;10.40;3.95;;;;;;;;;;4942088;28;20046;-80
2023/03/09 10:00:42;;;;;;;15.00;4.65;;;;;;;;;;4950895;28;20035;-79
2023/03/09 10:03:31;;;;;;;14.30;5.10;;;;;;;;;;4944067;29;20051;-79
2023/03/09 10:05:58;;;;;;;12.60;4.00;;;;;;;;;;4907953;29;20062;-79
2023/03/09 10:08:25;;;;;;;26.58;4.57;;;;;;;;;;4942302;28;20050;-81
2023/03/09 10:10:51;;;;;;;13.77;4.53;;;;;;;;;;4973680;28;20051;-80
2023/03/09 10:13:41;;;;;;;12.98;4.68;;;;;;;;;;4975066;28;20030;-80
2023/03/09 10:16:10;;;;;;;37.28;4.97;;;;;;;;;;4969711;28;20081;-81
2023/03/09 10:18:43;;;;;;;10.15;4.40;;;;;;;;;;4973358;28;20113;-80
2023/03/09 10:21:17;;;;;;;21.08;4.95;;;;;;;;;;4944983;28;20134;-78
2023/03/09 10:23:43;;;;;;;14.65;4.65;;;;;;;;;;4964468;28;20035;-81
2023/03/09 10:26:27;;;;;;;16.02;5.20;;;;;;;;;;4966510;28;20023;-80
2023/03/09 10:28:54;;;;;;;16.27;4.53;;;;;;;;;;4973250;28;20034;-80
2023/03/09 10:31:29;;;;;;;7.00;3.65;;;;;;;;;;4953735;28;20113;-81
2023/03/09 10:34:16;;;;;;;9.43;4.10;;;;;;;;;;4969773;28;20421;-80
2023/03/09 10:37:08;;;;;;;12.68;4.05;;;;;;;;;;4961233;28;20023;-79
2023/03/09 10:39:44;;;;;;;18.60;5.13;;;;;;;;;;4994011;28;20198;-80
2023/03/09 10:42:23;;;;;;;15.40;4.70;;;;;;;;;;5006458;28;20041;-79
2023/03/09 10:45:01;;;;;;;38.55;4.65;;;;;;;;;;5021609;28;20030;-78
2023/03/09 10:48:12;;;;;;;16.08;4.63;;;;;;;;;;5010612;28;20041;-82
2023/03/09 10:51:03;;;;;;;20.92;4.57;;;;;;;;;;4996083;28;20025;-84
2023/03/09 10:53:46;;;;;;;12.43;4.70;;;;;;;;;;4998877;28;20037;-81
2023/03/09 10:56:47;;;;;;;9.57;4.38;;;;;;;;;;5001531;28;20030;-83
2023/03/09 10:59:21;;;;;;;15.50;4.88;;;;;;;;;;5014039;28;20038;-82
2023/03/09 11:01:48;;;;;;;16.35;4.70;;;;;;;;;;5004411;28;20088;-84
2023/03/09 11:04:36;;;;;;;12.85;4.85;;;;;;;;;;5002660;28;20758;-81
2023/03/09 11:07:34;;;;;;;18.92;5.95;;;;;;;;;;4983285;28;20038;-84
2023/03/09 11:10:03;;;;;;;13.35;5.03;;;;;;;;;;4991922;28;20052;-83
2023/03/09 11:12:34;;;;;;;16.98;5.10;;;;;;;;;;5013444;28;20026;-83
2023/03/09 11:15:02;;;;;;;15.13;4.03;;;;;;;;;;4997446;28;20030;-83
2023/03/09 11:17:51;;;;;;;16.38;4.78;;;;;;;;;;5007291;28;20120;-83
2023/03/09 11:20:20;;;;;;;8.20;4.07;;;;;;;;;;5013512;28;20161;-83
2023/03/09 11:22:51;;;;;;;15.75;5.38;;;;;;;;;;5001930;28;20125;-85
2023/03/09 11:25:21;;;;;;;13.15;5.00;;;;;;;;;;4983626;28;20114;-81
2023/03/09 11:27:53;;;;;;;25.92;5.43;;;;;;;;;;4981155;28;20431;-83
2023/03/09 11:32:50;;;;;;;12.23;4.40;;;;;;;;;;5123594;22;20065;-82
2023/03/09 11:35:17;;;;;;;17.92;6.45;;;;;;;;;;5027433;28;20048;-81
2023/03/09 11:37:53;;;;;;;24.95;6.90;;;;;;;;;;5003558;28;20081;-83
2023/03/09 11:40:20;;;;;;;37.67;6.50;;;;;;;;;;5035671;28;20134;-82
2023/03/09 11:43:12;;;;;;;15.18;5.13;;;;;;;;;;5039133;28;20071;-83
2023/03/09 11:45:41;;;;;;;28.00;5.47;;;;;;;;;;5012470;28;20042;-82
2023/03/09 11:48:23;;;;;;;24.23;6.93;;;;;;;;;;5010985;28;20168;-82
2023/03/09 11:51:08;;;;;;;40.22;8.60;;;;;;;;;;5036866;28;20071;-83
2023/03/09 11:53:36;;;;;;;22.65;7.75;;;;;;;;;;5023243;28;20123;-78
2023/03/09 11:56:20;;;;;;;25.40;7.20;;;;;;;;;;5047636;28;20422;-82
2023/03/09 11:58:50;;;;;;;25.88;7.68;;;;;;;;;;5032433;28;20025;-81
2023/03/09 12:02:02;;;;;;;24.92;6.70;;;;;;;;;;5023825;28;20587;-85
2023/03/09 12:04:27;;;;;;;18.98;6.32;;;;;;;;;;5007882;28;20582;-82
2023/03/09 12:07:01;;;;;;;31.10;6.40;;;;;;;;;;5029075;28;20071;-81
2023/03/09 12:09:28;;;;;;;25.75;6.50;;;;;;;;;;5038682;28;20080;-82
2023/03/09 12:12:23;;;;;;;21.88;5.95;;;;;;;;;;5040373;28;20036;-81
2023/03/09 12:14:51;;;;;;;23.95;6.00;;;;;;;;;;5036288;28;20151;-83
2023/03/09 12:17:28;;;;;;;23.92;5.70;;;;;;;;;;5020602;28;20072;-81
2023/03/09 12:19:53;;;;;;;32.25;6.15;;;;;;;;;;5009111;28;20041;-80
2023/03/09 12:22:30;;;;;;;19.20;6.07;;;;;;;;;;5049059;28;20035;-79
2023/03/09 12:25:02;;;;;;;12.70;5.65;;;;;;;;;;5034033;28;20056;-81
2023/03/09 12:27:28;;;;;;;12.77;5.47;;;;;;;;;;5042811;28;20132;-80
2023/03/09 12:30:00;;;;;;;11.63;5.32;;;;;;;;;;5052464;28;20025;-83
2023/03/09 12:32:28;;;;;;;14.05;5.57;;;;;;;;;;5046079;28;20045;-82
2023/03/09 12:34:56;;;;;;;16.23;6.28;;;;;;;;;;5048703;28;20055;-83
2023/03/09 12:37:30;;;;;;;24.45;8.45;;;;;;;;;;5049425;28;20033;-84
2023/03/09 12:40:27;;;;;;;14.90;6.15;;;;;;;;;;5051146;28;20060;-80
2023/03/09 12:42:57;;;;;;;28.23;8.98;;;;;;;;;;5051428;28;20435;-80
2023/03/09 12:45:30;;;;;;;22.73;8.70;;;;;;;;;;5052809;28;20025;-81
2023/03/09 12:48:08;;;;;;;14.77;6.75;;;;;;;;;;5051883;28;20055;-79
2023/03/09 12:50:42;;;;;;;28.08;6.15;;;;;;;;;;5052058;28;20055;-81
2023/03/09 12:53:12;;;;;;;24.63;5.88;;;;;;;;;;5051307;28;20449;-82
2023/03/09 12:55:37;;;;;;;25.80;7.05;;;;;;;;;;5053957;28;20531;-82
2023/03/09 12:58:21;;;;;;;44.58;9.43;;;;;;;;;;5046091;28;20128;-82
2023/03/09 13:01:00;;;;;;;45.55;10.52;;;;;;;;;;5030614;28;20125;-83
2023/03/09 13:03:38;;;;;;;42.40;8.85;;;;;;;;;;5030463;28;20158;-81
2023/03/09 13:06:34;;;;;;;50.67;8.35;;;;;;;;;;5039100;28;20067;-82
2023/03/09 13:09:12;;;;;;;37.85;8.35;;;;;;;;;;5039523;28;20056;-83
2023/03/09 13:11:56;;;;;;;24.98;6.50;;;;;;;;;;5018019;28;20140;-82
2023/03/09 13:14:24;;;;;;;18.83;6.45;;;;;;;;;;5015380;28;20474;-82
2023/03/09 13:16:58;;;;;;;19.02;8.98;;;;;;;;;;5030423;28;20061;-82
2023/03/09 13:19:23;;;;;;;24.30;8.60;;;;;;;;;;5016198;28;20430;-82
2023/03/09 13:22:00;;;;;;;30.17;9.40;;;;;;;;;;5016435;28;20033;-82
2023/03/09 13:24:40;;;;;;;29.92;7.35;;;;;;;;;;5015387;28;20033;-80
2023/03/09 13:27:08;;;;;;;17.85;5.50;;;;;;;;;;5015375;28;20025;-83
2023/03/09 13:29:34;;;;;;;19.63;5.45;;;;;;;;;;5015775;28;20124;-81
2023/03/09 13:31:59;;;;;;;18.88;9.57;;;;;;;;;;5014207;28;20085;-80
2023/03/09 13:34:29;;;;;;;16.55;6.72;;;;;;;;;;5014250;28;20022;-82
2023/03/09 13:36:57;;;;;;;15.20;6.22;;;;;;;;;;5014555;28;20045;-82
2023/03/09 13:39:24;;;;;;;27.20;6.05;;;;;;;;;;5017315;28;20053;-83
2023/03/09 13:41:50;;;;;;;45.90;9.68;;;;;;;;;;5019068;28;20045;-80
2023/03/09 13:44:16;;;;;;;19.40;8.15;;;;;;;;;;5023109;28;20132;-82
2023/03/09 13:46:52;;;;;;;15.98;6.60;;;;;;;;;;5017026;28;20022;-81
2023/03/09 13:49:29;;;;;;;25.40;8.02;;;;;;;;;;5018125;28;20110;-82
2023/03/09 13:51:55;;;;;;;31.13;10.45;;;;;;;;;;5016367;28;20065;-81
2023/03/09 13:54:21;;;;;;;16.15;5.00;;;;;;;;;;5018319;28;20120;-81
2023/03/09 13:57:17;;;;;;;17.50;5.47;;;;;;;;;;5048574;28;20025;-83
2023/03/09 14:00:00;;;;;;;11.40;5.38;;;;;;;;;;5035135;28;20479;-82
2023/03/09 14:02:28;;;;;;;21.27;5.95;;;;;;;;;;5032070;28;20111;-82
2023/03/09 14:04:56;;;;;;;13.30;4.22;;;;;;;;;;5015637;28;20049;-82
2023/03/09 14:07:23;;;;;;;67.53;23.15;;;;;;;;;;5033973;28;20014;-81
2023/03/09 14:09:50;;;;;;;33.63;11.02;;;;;;;;;;5036136;28;20014;-82
2023/03/09 14:12:25;;;;;;;15.90;6.43;;;;;;;;;;5033221;28;20026;-84
2023/03/09 14:14:51;;;;;;;43.55;18.90;;;;;;;;;;5015343;28;20036;-83
2023/03/09 14:17:17;;;;;;;54.92;19.05;;;;;;;;;;5032221;28;20029;-84
2023/03/09 14:19:43;;;;;;;64.13;28.40;;;;;;;;;;5015333;28;20026;-83
2023/03/09 14:22:16;;;;;;;29.83;13.45;;;;;;;;;;5016333;28;20033;-83
2023/03/09 14:24:42;;;;;;;27.38;10.63;;;;;;;;;;4998680;28;20021;-83
2023/03/09 14:27:31;;;;;;;26.35;11.00;;;;;;;;;;5014523;28;20129;-78
2023/03/09 14:29:57;;;;;;;24.67;11.88;;;;;;;;;;5009490;28;20141;-79
2023/03/09 14:32:23;;;;;;;24.20;7.38;;;;;;;;;;5013152;28;20160;-79
2023/03/09 14:34:52;;;;;;;19.23;6.40;;;;;;;;;;5030037;28;20037;-79
2023/03/09 14:37:28;;;;;;;14.18;5.35;;;;;;;;;;5014697;28;20026;-78
2023/03/09 14:39:54;;;;;;;22.20;6.45;;;;;;;;;;5030620;28;20036;-78
2023/03/09 14:42:33;;;;;;;20.50;6.40;;;;;;;;;;5014603;28;20022;-79
2023/03/09 14:45:04;;;;;;;21.17;6.63;;;;;;;;;;5012937;28;20514;-79
2023/03/09 14:47:30;;;;;;;21.70;7.20;;;;;;;;;;5014471;28;20025;-79
2023/03/09 14:49:55;;;;;;;17.92;7.47;;;;;;;;;;5012837;28;20467;-79